Bendorf, Germany

1:28 PM CEST on May 28, 2015 (GMT +0200)
Wetterstation Urmitz | | Change Station
CLOSE
Current Station
Personal Weather Station
Location: Urmitz, RHEINLAND-PFALZ
Elevation: 223 ft
Nearby Weather Stations

Elev 223 ft 50.41 °N, 7.52 °E | Updated 44 seconds ago

Mostly Cloudy
Mostly Cloudy
70.9 °F
Feels Like 77 °F
N
11.0
Wind Variable Wind from North
Gusts 11.0 mph

Today
High -- | Low -- °F
--% Chance of Precip.
Yesterday
High -- | Low -- °F
Precip. -- in
5:27 AM 9:27 PM
Waxing Gibbous, 75% visible
Pressure 29.98 in
Visibility 6.2 miles
Clouds Few 3200 ft
Mostly Cloudy 4000 ft
Heat Index 77 °F
Dew Point 48 °F
Humidity 43%
Rainfall 0.00 in
Snow Depth Not available.
UV 5 out of 12
Pollen Not available.
Air Quality Not available.
Flu Activity Not available.
METAR ETSB 281120Z 24013KT 9999 FEW032 BKN040 16/07 Q1015 BLU BLU

More Conditions Fewer Conditions

Pressure 29.98 in
Visibility 6.2 miles
Clouds Few 3200 ft
Mostly Cloudy 4000 ft
Heat Index 77 °F
Dew Point 48 °F
Humidity 43%
Rainfall 0.00 in
Snow Depth Not available.
UV 5 out of 12
Pollen Not available.
Air Quality Not available.
Flu Activity Not available.
METAR ETSB 281120Z 24013KT 9999 FEW032 BKN040 16/07 Q1015 BLU BLU

More Conditions Fewer Conditions

10-Day Weather Forecast

Almanac

Astronomy

May. 28, 2015 Rise Set
Actual Time
Civil Twilight
Nautical Twilight
Astronomical Twilight
Moon
Length of Visible Light
Length of Day
Tomorrow will be .
, % of the Moon is Illuminated

Today's Extremes

Country Highs Country Lows

Community

WunderPhotos

Upload Photos

1,824,954 photos uploaded!

WunderBlogs® & News

Nearby

Air Quality

  Air Quality AQ Index Pollutant
Not available.

Snow Depth

Station Depth Elevation

Earthquake Activity

City Distance Mag. Time & Date
Minimum magnitude displayed is 2.5.

Coastal Water Temperatures

Place Temperature

Stations

Nearby Weather Stations

Station Location Temp. Windchill Dew Point Humidity Wind Precip. Elev Updated Type